sensor_id;sensor_type;location;lat;lon;timestamp;P1;durP1;ratioP1;P2;durP2;ratioP2
35330;SDS011;21441;52.190;20.910;2024-02-15T00:02:25;14.23;;;7.90;;
35330;SDS011;21441;52.190;20.910;2024-02-15T00:04:52;14.80;;;7.75;;
35330;SDS011;21441;52.190;20.910;2024-02-15T00:07:20;11.07;;;7.90;;
35330;SDS011;21441;52.190;20.910;2024-02-15T00:09:51;14.50;;;8.48;;
35330;SDS011;21441;52.190;20.910;2024-02-15T00:12:19;11.52;;;8.18;;
35330;SDS011;21441;52.190;20.910;2024-02-15T00:14:45;14.93;;;8.20;;
35330;SDS011;21441;52.190;20.910;2024-02-15T00:17:12;11.98;;;7.85;;
35330;SDS011;21441;52.190;20.910;2024-02-15T00:19:39;14.15;;;9.38;;
35330;SDS011;21441;52.190;20.910;2024-02-15T00:22:07;10.75;;;7.07;;
35330;SDS011;21441;52.190;20.910;2024-02-15T00:24:37;14.60;;;8.05;;
35330;SDS011;21441;52.190;20.910;2024-02-15T00:27:04;13.07;;;7.75;;
35330;SDS011;21441;52.190;20.910;2024-02-15T00:29:31;14.70;;;8.13;;
35330;SDS011;21441;52.190;20.910;2024-02-15T00:31:59;14.02;;;8.05;;
35330;SDS011;21441;52.190;20.910;2024-02-15T00:34:26;11.68;;;7.57;;
35330;SDS011;21441;52.190;20.910;2024-02-15T00:36:53;13.70;;;7.93;;
35330;SDS011;21441;52.190;20.910;2024-02-15T00:39:20;13.57;;;8.00;;
35330;SDS011;21441;52.190;20.910;2024-02-15T00:41:48;15.13;;;8.55;;
35330;SDS011;21441;52.190;20.910;2024-02-15T00:44:15;14.77;;;7.97;;
35330;SDS011;21441;52.190;20.910;2024-02-15T00:46:43;16.38;;;7.60;;
35330;SDS011;21441;52.190;20.910;2024-02-15T00:49:10;15.27;;;8.88;;
35330;SDS011;21441;52.190;20.910;2024-02-15T00:51:36;14.00;;;7.35;;
35330;SDS011;21441;52.190;20.910;2024-02-15T00:54:03;15.48;;;7.57;;
35330;SDS011;21441;52.190;20.910;2024-02-15T00:56:30;13.15;;;8.07;;
35330;SDS011;21441;52.190;20.910;2024-02-15T00:59:00;14.25;;;8.63;;
35330;SDS011;21441;52.190;20.910;2024-02-15T01:01:27;13.53;;;7.80;;
35330;SDS011;21441;52.190;20.910;2024-02-15T01:03:54;15.50;;;9.05;;
35330;SDS011;21441;52.190;20.910;2024-02-15T01:06:21;15.55;;;8.10;;
35330;SDS011;21441;52.190;20.910;2024-02-15T01:08:48;15.32;;;8.45;;
35330;SDS011;21441;52.190;20.910;2024-02-15T01:11:15;14.57;;;8.23;;
35330;SDS011;21441;52.190;20.910;2024-02-15T01:13:42;15.82;;;8.38;;
35330;SDS011;21441;52.190;20.910;2024-02-15T01:16:11;12.93;;;8.07;;
35330;SDS011;21441;52.190;20.910;2024-02-15T01:18:37;17.75;;;9.52;;
35330;SDS011;21441;52.190;20.910;2024-02-15T01:21:05;13.15;;;7.25;;
35330;SDS011;21441;52.190;20.910;2024-02-15T01:23:32;12.25;;;7.68;;
35330;SDS011;21441;52.190;20.910;2024-02-15T01:26:02;12.93;;;8.38;;
35330;SDS011;21441;52.190;20.910;2024-02-15T01:28:30;14.00;;;8.45;;
35330;SDS011;21441;52.190;20.910;2024-02-15T01:30:58;12.52;;;7.80;;
35330;SDS011;21441;52.190;20.910;2024-02-15T01:33:25;14.07;;;7.82;;
35330;SDS011;21441;52.190;20.910;2024-02-15T01:35:52;11.70;;;7.80;;
35330;SDS011;21441;52.190;20.910;2024-02-15T01:38:19;14.70;;;8.25;;
35330;SDS011;21441;52.190;20.910;2024-02-15T01:40:46;15.05;;;8.98;;
35330;SDS011;21441;52.190;20.910;2024-02-15T01:43:13;13.93;;;8.27;;
35330;SDS011;21441;52.190;20.910;2024-02-15T01:45:41;14.23;;;8.77;;
35330;SDS011;21441;52.190;20.910;2024-02-15T01:48:08;14.70;;;8.35;;
35330;SDS011;21441;52.190;20.910;2024-02-15T01:50:37;14.95;;;7.93;;
35330;SDS011;21441;52.190;20.910;2024-02-15T01:53:04;12.65;;;7.90;;
35330;SDS011;21441;52.190;20.910;2024-02-15T01:55:32;13.48;;;8.40;;
35330;SDS011;21441;52.190;20.910;2024-02-15T01:57:59;16.65;;;7.65;;
35330;SDS011;21441;52.190;20.910;2024-02-15T02:00:27;13.02;;;8.38;;
35330;SDS011;21441;52.190;20.910;2024-02-15T02:02:53;15.00;;;8.52;;
35330;SDS011;21441;52.190;20.910;2024-02-15T02:05:26;12.77;;;8.48;;
35330;SDS011;21441;52.190;20.910;2024-02-15T02:07:54;13.70;;;7.53;;
35330;SDS011;21441;52.190;20.910;2024-02-15T02:10:23;14.00;;;7.95;;
35330;SDS011;21441;52.190;20.910;2024-02-15T02:12:49;13.93;;;8.52;;
35330;SDS011;21441;52.190;20.910;2024-02-15T02:15:16;14.40;;;8.50;;
35330;SDS011;21441;52.190;20.910;2024-02-15T02:17:48;13.43;;;7.78;;
35330;SDS011;21441;52.190;20.910;2024-02-15T02:20:15;13.88;;;9.07;;
35330;SDS011;21441;52.190;20.910;2024-02-15T02:22:42;14.27;;;7.88;;
35330;SDS011;21441;52.190;20.910;2024-02-15T02:25:12;16.38;;;8.82;;
35330;SDS011;21441;52.190;20.910;2024-02-15T02:27:39;14.82;;;7.97;;
35330;SDS011;21441;52.190;20.910;2024-02-15T02:30:12;14.20;;;8.48;;
35330;SDS011;21441;52.190;20.910;2024-02-15T02:32:40;17.55;;;8.13;;
35330;SDS011;21441;52.190;20.910;2024-02-15T02:35:07;15.63;;;8.50;;
35330;SDS011;21441;52.190;20.910;2024-02-15T02:37:37;13.77;;;8.80;;
35330;SDS011;21441;52.190;20.910;2024-02-15T02:40:04;16.00;;;8.88;;
35330;SDS011;21441;52.190;20.910;2024-02-15T02:42:34;14.15;;;8.20;;
35330;SDS011;21441;52.190;20.910;2024-02-15T02:45:01;14.48;;;8.48;;
35330;SDS011;21441;52.190;20.910;2024-02-15T02:47:27;12.70;;;8.23;;
35330;SDS011;21441;52.190;20.910;2024-02-15T02:49:54;15.93;;;7.70;;
35330;SDS011;21441;52.190;20.910;2024-02-15T02:52:21;12.63;;;8.60;;
35330;SDS011;21441;52.190;20.910;2024-02-15T02:54:48;14.07;;;9.00;;
35330;SDS011;21441;52.190;20.910;2024-02-15T02:57:14;15.15;;;8.63;;
35330;SDS011;21441;52.190;20.910;2024-02-15T02:59:42;13.10;;;9.18;;
35330;SDS011;21441;52.190;20.910;2024-02-15T03:02:10;15.00;;;8.82;;
35330;SDS011;21441;52.190;20.910;2024-02-15T03:04:37;16.05;;;10.05;;
35330;SDS011;21441;52.190;20.910;2024-02-15T03:07:05;11.55;;;7.85;;
35330;SDS011;21441;52.190;20.910;2024-02-15T03:09:32;20.88;;;8.55;;
35330;SDS011;21441;52.190;20.910;2024-02-15T03:11:59;13.90;;;7.65;;
35330;SDS011;21441;52.190;20.910;2024-02-15T03:14:27;14.38;;;8.70;;
35330;SDS011;21441;52.190;20.910;2024-02-15T03:16:57;12.80;;;7.88;;
35330;SDS011;21441;52.190;20.910;2024-02-15T03:19:23;14.05;;;7.97;;
35330;SDS011;21441;52.190;20.910;2024-02-15T03:21:52;14.85;;;9.25;;
35330;SDS011;21441;52.190;20.910;2024-02-15T03:24:19;17.83;;;9.38;;
35330;SDS011;21441;52.190;20.910;2024-02-15T03:26:46;15.68;;;8.45;;
35330;SDS011;21441;52.190;20.910;2024-02-15T03:29:13;14.80;;;9.75;;
35330;SDS011;21441;52.190;20.910;2024-02-15T03:31:39;14.93;;;9.10;;
35330;SDS011;21441;52.190;20.910;2024-02-15T03:34:07;15.30;;;9.07;;
35330;SDS011;21441;52.190;20.910;2024-02-15T03:36:36;17.67;;;8.10;;
35330;SDS011;21441;52.190;20.910;2024-02-15T03:39:04;13.02;;;8.00;;
35330;SDS011;21441;52.190;20.910;2024-02-15T03:41:31;13.65;;;9.27;;
35330;SDS011;21441;52.190;20.910;2024-02-15T03:43:58;12.23;;;8.07;;
35330;SDS011;21441;52.190;20.910;2024-02-15T03:46:25;17.63;;;10.98;;
35330;SDS011;21441;52.190;20.910;2024-02-15T03:48:53;14.57;;;8.73;;
35330;SDS011;21441;52.190;20.910;2024-02-15T03:51:20;16.77;;;8.10;;
35330;SDS011;21441;52.190;20.910;2024-02-15T03:53:50;16.92;;;9.20;;
35330;SDS011;21441;52.190;20.910;2024-02-15T03:56:17;13.65;;;9.20;;
35330;SDS011;21441;52.190;20.910;2024-02-15T03:58:44;19.20;;;8.23;;
35330;SDS011;21441;52.190;20.910;2024-02-15T04:01:11;13.25;;;8.43;;
35330;SDS011;21441;52.190;20.910;2024-02-15T04:03:40;16.73;;;9.40;;
35330;SDS011;21441;52.190;20.910;2024-02-15T04:06:07;15.07;;;9.48;;
35330;SDS011;21441;52.190;20.910;2024-02-15T04:08:36;16.58;;;8.68;;
35330;SDS011;21441;52.190;20.910;2024-02-15T04:11:04;18.10;;;8.73;;
35330;SDS011;21441;52.190;20.910;2024-02-15T04:13:33;15.43;;;8.60;;
35330;SDS011;21441;52.190;20.910;2024-02-15T04:15:59;15.80;;;9.80;;
35330;SDS011;21441;52.190;20.910;2024-02-15T04:18:26;14.93;;;9.05;;
35330;SDS011;21441;52.190;20.910;2024-02-15T04:20:57;15.48;;;9.38;;
35330;SDS011;21441;52.190;20.910;2024-02-15T04:23:24;15.15;;;8.95;;
35330;SDS011;21441;52.190;20.910;2024-02-15T04:25:52;14.90;;;8.32;;
35330;SDS011;21441;52.190;20.910;2024-02-15T04:28:20;14.98;;;8.15;;
35330;SDS011;21441;52.190;20.910;2024-02-15T04:30:46;16.00;;;9.82;;
35330;SDS011;21441;52.190;20.910;2024-02-15T04:33:14;14.38;;;8.63;;
35330;SDS011;21441;52.190;20.910;2024-02-15T04:35:42;13.27;;;8.05;;
35330;SDS011;21441;52.190;20.910;2024-02-15T04:38:09;15.60;;;10.18;;
35330;SDS011;21441;52.190;20.910;2024-02-15T04:40:35;16.52;;;9.63;;
35330;SDS011;21441;52.190;20.910;2024-02-15T04:43:06;12.50;;;8.85;;
35330;SDS011;21441;52.190;20.910;2024-02-15T04:45:34;14.00;;;8.50;;
35330;SDS011;21441;52.190;20.910;2024-02-15T04:48:01;15.48;;;8.80;;
35330;SDS011;21441;52.190;20.910;2024-02-15T04:50:28;16.02;;;9.30;;
35330;SDS011;21441;52.190;20.910;2024-02-15T04:52:56;15.27;;;8.57;;
35330;SDS011;21441;52.190;20.910;2024-02-15T04:55:22;14.55;;;9.02;;
35330;SDS011;21441;52.190;20.910;2024-02-15T04:57:52;17.67;;;10.73;;
35330;SDS011;21441;52.190;20.910;2024-02-15T05:00:23;16.83;;;9.18;;
35330;SDS011;21441;52.190;20.910;2024-02-15T05:02:51;15.27;;;8.85;;
35330;SDS011;21441;52.190;20.910;2024-02-15T05:05:18;12.48;;;7.10;;
35330;SDS011;21441;52.190;20.910;2024-02-15T05:07:45;25.42;;;9.48;;
35330;SDS011;21441;52.190;20.910;2024-02-15T05:10:14;16.13;;;9.02;;
35330;SDS011;21441;52.190;20.910;2024-02-15T05:12:41;13.25;;;8.88;;
35330;SDS011;21441;52.190;20.910;2024-02-15T05:15:09;14.18;;;8.82;;
35330;SDS011;21441;52.190;20.910;2024-02-15T05:17:38;16.90;;;9.15;;
35330;SDS011;21441;52.190;20.910;2024-02-15T05:20:08;14.85;;;9.40;;
35330;SDS011;21441;52.190;20.910;2024-02-15T05:22:37;16.73;;;9.30;;
35330;SDS011;21441;52.190;20.910;2024-02-15T05:25:05;13.73;;;9.13;;
35330;SDS011;21441;52.190;20.910;2024-02-15T05:27:33;18.63;;;9.65;;
35330;SDS011;21441;52.190;20.910;2024-02-15T05:30:02;16.30;;;9.45;;
35330;SDS011;21441;52.190;20.910;2024-02-15T05:32:33;16.48;;;9.38;;
35330;SDS011;21441;52.190;20.910;2024-02-15T05:35:10;19.65;;;9.30;;
35330;SDS011;21441;52.190;20.910;2024-02-15T05:37:38;17.85;;;9.48;;
35330;SDS011;21441;52.190;20.910;2024-02-15T05:40:10;15.55;;;9.18;;
35330;SDS011;21441;52.190;20.910;2024-02-15T05:42:47;17.38;;;8.90;;
35330;SDS011;21441;52.190;20.910;2024-02-15T05:45:28;15.60;;;8.63;;
35330;SDS011;21441;52.190;20.910;2024-02-15T05:48:02;14.90;;;9.80;;
35330;SDS011;21441;52.190;20.910;2024-02-15T05:50:38;17.52;;;10.00;;
35330;SDS011;21441;52.190;20.910;2024-02-15T05:53:07;18.33;;;11.40;;
35330;SDS011;21441;52.190;20.910;2024-02-15T05:55:36;16.67;;;9.23;;
35330;SDS011;21441;52.190;20.910;2024-02-15T05:58:10;19.90;;;11.45;;
35330;SDS011;21441;52.190;20.910;2024-02-15T06:00:39;17.85;;;10.15;;
35330;SDS011;21441;52.190;20.910;2024-02-15T06:03:06;20.92;;;10.98;;
35330;SDS011;21441;52.190;20.910;2024-02-15T06:05:36;19.92;;;12.10;;
35330;SDS011;21441;52.190;20.910;2024-02-15T06:08:03;21.10;;;12.43;;
35330;SDS011;21441;52.190;20.910;2024-02-15T06:10:30;25.73;;;13.25;;
35330;SDS011;21441;52.190;20.910;2024-02-15T06:12:58;21.27;;;13.80;;
35330;SDS011;21441;52.190;20.910;2024-02-15T06:15:24;25.33;;;12.70;;
35330;SDS011;21441;52.190;20.910;2024-02-15T06:17:52;25.90;;;13.82;;
35330;SDS011;21441;52.190;20.910;2024-02-15T06:20:19;23.70;;;13.52;;
35330;SDS011;21441;52.190;20.910;2024-02-15T06:22:53;24.25;;;14.50;;
35330;SDS011;21441;52.190;20.910;2024-02-15T06:25:19;27.60;;;14.15;;
35330;SDS011;21441;52.190;20.910;2024-02-15T06:27:47;26.65;;;16.63;;
35330;SDS011;21441;52.190;20.910;2024-02-15T06:30:16;27.60;;;16.15;;
35330;SDS011;21441;52.190;20.910;2024-02-15T06:33:01;25.08;;;15.57;;
35330;SDS011;21441;52.190;20.910;2024-02-15T06:36:03;25.83;;;14.90;;
35330;SDS011;21441;52.190;20.910;2024-02-15T06:38:46;24.17;;;14.13;;
35330;SDS011;21441;52.190;20.910;2024-02-15T06:41:30;27.08;;;16.42;;
35330;SDS011;21441;52.190;20.910;2024-02-15T06:43:57;27.98;;;19.20;;
35330;SDS011;21441;52.190;20.910;2024-02-15T06:46:29;30.88;;;17.08;;
35330;SDS011;21441;52.190;20.910;2024-02-15T06:48:56;34.63;;;18.38;;
35330;SDS011;21441;52.190;20.910;2024-02-15T06:51:23;32.95;;;20.00;;
35330;SDS011;21441;52.190;20.910;2024-02-15T06:53:52;29.23;;;17.60;;
35330;SDS011;21441;52.190;20.910;2024-02-15T06:56:24;36.80;;;19.67;;
35330;SDS011;21441;52.190;20.910;2024-02-15T06:58:51;36.75;;;22.05;;
35330;SDS011;21441;52.190;20.910;2024-02-15T07:01:20;36.60;;;21.25;;
35330;SDS011;21441;52.190;20.910;2024-02-15T07:03:53;36.63;;;20.67;;
35330;SDS011;21441;52.190;20.910;2024-02-15T07:06:21;34.80;;;21.83;;
35330;SDS011;21441;52.190;20.910;2024-02-15T07:08:48;39.30;;;23.70;;
35330;SDS011;21441;52.190;20.910;2024-02-15T07:11:17;37.55;;;23.20;;
35330;SDS011;21441;52.190;20.910;2024-02-15T07:28:16;38.53;;;22.17;;
35330;SDS011;21441;52.190;20.910;2024-02-15T07:33:39;38.90;;;24.70;;
35330;SDS011;21441;52.190;20.910;2024-02-15T07:36:08;43.50;;;25.52;;
35330;SDS011;21441;52.190;20.910;2024-02-15T07:38:35;44.75;;;25.83;;
35330;SDS011;21441;52.190;20.910;2024-02-15T07:41:12;48.45;;;27.30;;
35330;SDS011;21441;52.190;20.910;2024-02-15T07:43:40;47.83;;;27.20;;
35330;SDS011;21441;52.190;20.910;2024-02-15T07:46:13;45.28;;;26.20;;
35330;SDS011;21441;52.190;20.910;2024-02-15T07:48:42;45.28;;;26.23;;
35330;SDS011;21441;52.190;20.910;2024-02-15T07:51:12;46.03;;;27.10;;
35330;SDS011;21441;52.190;20.910;2024-02-15T07:53:38;41.58;;;26.25;;
35330;SDS011;21441;52.190;20.910;2024-02-15T07:56:06;40.17;;;22.42;;
35330;SDS011;21441;52.190;20.910;2024-02-15T07:58:32;49.17;;;28.33;;
35330;SDS011;21441;52.190;20.910;2024-02-15T08:01:03;43.38;;;26.02;;
35330;SDS011;21441;52.190;20.910;2024-02-15T08:03:39;46.97;;;28.60;;
35330;SDS011;21441;52.190;20.910;2024-02-15T08:06:10;53.05;;;30.15;;
35330;SDS011;21441;52.190;20.910;2024-02-15T08:08:38;46.40;;;27.98;;
35330;SDS011;21441;52.190;20.910;2024-02-15T08:11:07;48.25;;;27.70;;
35330;SDS011;21441;52.190;20.910;2024-02-15T08:13:43;44.25;;;27.52;;
35330;SDS011;21441;52.190;20.910;2024-02-15T08:16:16;48.05;;;28.45;;
35330;SDS011;21441;52.190;20.910;2024-02-15T08:18:43;51.03;;;29.13;;
35330;SDS011;21441;52.190;20.910;2024-02-15T08:21:09;49.92;;;29.33;;
35330;SDS011;21441;52.190;20.910;2024-02-15T08:23:37;51.83;;;29.27;;
35330;SDS011;21441;52.190;20.910;2024-02-15T08:26:04;48.22;;;29.00;;
35330;SDS011;21441;52.190;20.910;2024-02-15T08:28:34;49.40;;;27.65;;
35330;SDS011;21441;52.190;20.910;2024-02-15T08:31:03;52.13;;;31.40;;
35330;SDS011;21441;52.190;20.910;2024-02-15T08:33:34;56.83;;;32.10;;
35330;SDS011;21441;52.190;20.910;2024-02-15T08:36:02;56.63;;;32.03;;
35330;SDS011;21441;52.190;20.910;2024-02-15T08:38:30;54.10;;;32.17;;
35330;SDS011;21441;52.190;20.910;2024-02-15T08:41:03;51.25;;;30.73;;
35330;SDS011;21441;52.190;20.910;2024-02-15T08:43:32;53.17;;;32.25;;
35330;SDS011;21441;52.190;20.910;2024-02-15T08:46:00;51.33;;;29.77;;
35330;SDS011;21441;52.190;20.910;2024-02-15T08:48:37;49.38;;;31.20;;
35330;SDS011;21441;52.190;20.910;2024-02-15T08:51:18;51.33;;;29.23;;
35330;SDS011;21441;52.190;20.910;2024-02-15T08:53:46;55.40;;;31.25;;
35330;SDS011;21441;52.190;20.910;2024-02-15T08:56:14;53.53;;;31.00;;
35330;SDS011;21441;52.190;20.910;2024-02-15T08:58:41;52.67;;;31.88;;
35330;SDS011;21441;52.190;20.910;2024-02-15T09:01:08;51.10;;;31.30;;
35330;SDS011;21441;52.190;20.910;2024-02-15T09:03:35;54.00;;;32.17;;
35330;SDS011;21441;52.190;20.910;2024-02-15T09:06:02;56.50;;;32.30;;
35330;SDS011;21441;52.190;20.910;2024-02-15T09:08:31;49.40;;;30.20;;
35330;SDS011;21441;52.190;20.910;2024-02-15T09:10:58;49.67;;;31.27;;
35330;SDS011;21441;52.190;20.910;2024-02-15T09:13:25;47.22;;;28.10;;
35330;SDS011;21441;52.190;20.910;2024-02-15T09:15:52;54.78;;;30.92;;
35330;SDS011;21441;52.190;20.910;2024-02-15T09:18:18;55.05;;;32.95;;
35330;SDS011;21441;52.190;20.910;2024-02-15T09:20:48;50.55;;;30.60;;
35330;SDS011;21441;52.190;20.910;2024-02-15T09:23:20;48.67;;;30.00;;
35330;SDS011;21441;52.190;20.910;2024-02-15T09:25:50;48.78;;;29.45;;
35330;SDS011;21441;52.190;20.910;2024-02-15T09:28:17;43.88;;;29.55;;
35330;SDS011;21441;52.190;20.910;2024-02-15T09:30:48;56.70;;;33.17;;
35330;SDS011;21441;52.190;20.910;2024-02-15T09:33:17;42.00;;;27.98;;
35330;SDS011;21441;52.190;20.910;2024-02-15T09:35:44;51.03;;;29.35;;
35330;SDS011;21441;52.190;20.910;2024-02-15T09:38:12;46.08;;;30.08;;
35330;SDS011;21441;52.190;20.910;2024-02-15T09:40:42;56.65;;;32.83;;
35330;SDS011;21441;52.190;20.910;2024-02-15T09:43:11;53.45;;;30.65;;
35330;SDS011;21441;52.190;20.910;2024-02-15T09:45:39;46.08;;;28.38;;
35330;SDS011;21441;52.190;20.910;2024-02-15T09:48:06;49.25;;;27.90;;
35330;SDS011;21441;52.190;20.910;2024-02-15T09:50:34;53.33;;;33.78;;
35330;SDS011;21441;52.190;20.910;2024-02-15T09:53:01;52.17;;;33.33;;
35330;SDS011;21441;52.190;20.910;2024-02-15T09:55:29;47.85;;;30.58;;
35330;SDS011;21441;52.190;20.910;2024-02-15T09:57:55;52.42;;;33.08;;
35330;SDS011;21441;52.190;20.910;2024-02-15T10:00:25;51.00;;;33.67;;
35330;SDS011;21441;52.190;20.910;2024-02-15T10:02:52;51.95;;;32.42;;
35330;SDS011;21441;52.190;20.910;2024-02-15T10:05:21;51.42;;;29.40;;
35330;SDS011;21441;52.190;20.910;2024-02-15T10:07:48;47.08;;;29.40;;
35330;SDS011;21441;52.190;20.910;2024-02-15T10:10:15;58.92;;;34.10;;
35330;SDS011;21441;52.190;20.910;2024-02-15T10:12:43;58.15;;;35.15;;
35330;SDS011;21441;52.190;20.910;2024-02-15T10:15:10;57.30;;;36.25;;
35330;SDS011;21441;52.190;20.910;2024-02-15T10:17:38;55.92;;;34.90;;
35330;SDS011;21441;52.190;20.910;2024-02-15T10:22:35;55.35;;;32.50;;
35330;SDS011;21441;52.190;20.910;2024-02-15T10:25:11;53.90;;;30.85;;
35330;SDS011;21441;52.190;20.910;2024-02-15T10:27:38;56.33;;;36.72;;
35330;SDS011;21441;52.190;20.910;2024-02-15T10:30:15;65.72;;;36.55;;
35330;SDS011;21441;52.190;20.910;2024-02-15T10:32:44;66.70;;;37.25;;
35330;SDS011;21441;52.190;20.910;2024-02-15T10:35:18;60.75;;;37.38;;
35330;SDS011;21441;52.190;20.910;2024-02-15T10:37:45;63.20;;;38.30;;
35330;SDS011;21441;52.190;20.910;2024-02-15T10:40:14;60.47;;;36.65;;
35330;SDS011;21441;52.190;20.910;2024-02-15T10:42:44;65.97;;;38.72;;
35330;SDS011;21441;52.190;20.910;2024-02-15T10:45:12;55.28;;;34.70;;
35330;SDS011;21441;52.190;20.910;2024-02-15T10:47:39;67.75;;;37.88;;
35330;SDS011;21441;52.190;20.910;2024-02-15T10:50:08;59.97;;;37.35;;
35330;SDS011;21441;52.190;20.910;2024-02-15T10:52:36;67.20;;;38.33;;
35330;SDS011;21441;52.190;20.910;2024-02-15T10:55:06;62.38;;;37.22;;
35330;SDS011;21441;52.190;20.910;2024-02-15T10:57:39;60.92;;;36.85;;
35330;SDS011;21441;52.190;20.910;2024-02-15T11:00:06;67.90;;;37.97;;
35330;SDS011;21441;52.190;20.910;2024-02-15T11:02:37;69.38;;;36.05;;
35330;SDS011;21441;52.190;20.910;2024-02-15T11:05:07;60.38;;;37.65;;
35330;SDS011;21441;52.190;20.910;2024-02-15T11:07:37;63.40;;;38.55;;
35330;SDS011;21441;52.190;20.910;2024-02-15T11:10:05;58.40;;;35.63;;
35330;SDS011;21441;52.190;20.910;2024-02-15T11:12:33;63.60;;;39.05;;
35330;SDS011;21441;52.190;20.910;2024-02-15T11:15:00;58.03;;;33.03;;
35330;SDS011;21441;52.190;20.910;2024-02-15T11:23:10;62.60;;;36.47;;
35330;SDS011;21441;52.190;20.910;2024-02-15T11:25:38;67.43;;;40.83;;
35330;SDS011;21441;52.190;20.910;2024-02-15T11:30:47;64.50;;;38.40;;
35330;SDS011;21441;52.190;20.910;2024-02-15T11:33:24;64.70;;;39.85;;
35330;SDS011;21441;52.190;20.910;2024-02-15T11:36:02;66.78;;;40.80;;
35330;SDS011;21441;52.190;20.910;2024-02-15T11:38:35;64.57;;;38.47;;
35330;SDS011;21441;52.190;20.910;2024-02-15T11:41:03;63.80;;;37.92;;
35330;SDS011;21441;52.190;20.910;2024-02-15T11:43:50;70.03;;;38.92;;
35330;SDS011;21441;52.190;20.910;2024-02-15T11:46:22;56.75;;;36.22;;
35330;SDS011;21441;52.190;20.910;2024-02-15T11:48:50;61.53;;;35.25;;
35330;SDS011;21441;52.190;20.910;2024-02-15T11:51:29;54.22;;;34.63;;
35330;SDS011;21441;52.190;20.910;2024-02-15T11:54:01;53.47;;;31.25;;
35330;SDS011;21441;52.190;20.910;2024-02-15T11:56:31;55.00;;;34.20;;
35330;SDS011;21441;52.190;20.910;2024-02-15T11:59:03;49.25;;;31.50;;
35330;SDS011;21441;52.190;20.910;2024-02-15T12:01:32;53.10;;;33.03;;
35330;SDS011;21441;52.190;20.910;2024-02-15T12:04:18;50.33;;;31.38;;
35330;SDS011;21441;52.190;20.910;2024-02-15T12:07:02;54.22;;;33.28;;
35330;SDS011;21441;52.190;20.910;2024-02-15T12:09:48;53.00;;;32.78;;
35330;SDS011;21441;52.190;20.910;2024-02-15T12:12:32;51.67;;;33.97;;
35330;SDS011;21441;52.190;20.910;2024-02-15T12:15:16;47.63;;;31.83;;
35330;SDS011;21441;52.190;20.910;2024-02-15T12:18:13;50.03;;;31.15;;
35330;SDS011;21441;52.190;20.910;2024-02-15T12:20:57;50.20;;;28.88;;
35330;SDS011;21441;52.190;20.910;2024-02-15T12:23:25;46.63;;;30.52;;
35330;SDS011;21441;52.190;20.910;2024-02-15T12:25:54;43.85;;;29.30;;
35330;SDS011;21441;52.190;20.910;2024-02-15T12:28:21;50.22;;;33.25;;
35330;SDS011;21441;52.190;20.910;2024-02-15T12:30:48;48.70;;;30.98;;
35330;SDS011;21441;52.190;20.910;2024-02-15T12:33:21;48.92;;;31.30;;
35330;SDS011;21441;52.190;20.910;2024-02-15T12:35:49;45.88;;;29.77;;
35330;SDS011;21441;52.190;20.910;2024-02-15T12:38:16;52.85;;;33.95;;
35330;SDS011;21441;52.190;20.910;2024-02-15T12:40:44;50.67;;;32.35;;
35330;SDS011;21441;52.190;20.910;2024-02-15T12:43:12;55.70;;;31.30;;
35330;SDS011;21441;52.190;20.910;2024-02-15T12:45:39;49.00;;;32.50;;
35330;SDS011;21441;52.190;20.910;2024-02-15T12:48:07;51.55;;;32.45;;
35330;SDS011;21441;52.190;20.910;2024-02-15T12:50:34;50.67;;;31.23;;
35330;SDS011;21441;52.190;20.910;2024-02-15T12:53:01;47.53;;;29.25;;
35330;SDS011;21441;52.190;20.910;2024-02-15T12:55:28;49.67;;;30.73;;
35330;SDS011;21441;52.190;20.910;2024-02-15T12:58:00;46.45;;;30.58;;
35330;SDS011;21441;52.190;20.910;2024-02-15T13:00:31;48.38;;;31.05;;
35330;SDS011;21441;52.190;20.910;2024-02-15T13:02:59;47.57;;;29.73;;
35330;SDS011;21441;52.190;20.910;2024-02-15T13:05:29;45.90;;;30.70;;
35330;SDS011;21441;52.190;20.910;2024-02-15T13:07:56;45.00;;;29.48;;
35330;SDS011;21441;52.190;20.910;2024-02-15T13:10:24;39.22;;;26.65;;
35330;SDS011;21441;52.190;20.910;2024-02-15T13:12:51;47.78;;;28.05;;
35330;SDS011;21441;52.190;20.910;2024-02-15T13:15:18;47.05;;;30.60;;
35330;SDS011;21441;52.190;20.910;2024-02-15T13:17:49;44.25;;;29.30;;
35330;SDS011;21441;52.190;20.910;2024-02-15T13:20:16;42.35;;;28.38;;
35330;SDS011;21441;52.190;20.910;2024-02-15T13:22:46;49.30;;;29.30;;
35330;SDS011;21441;52.190;20.910;2024-02-15T13:25:13;43.55;;;27.95;;
35330;SDS011;21441;52.190;20.910;2024-02-15T13:27:42;39.50;;;26.45;;
35330;SDS011;21441;52.190;20.910;2024-02-15T13:30:11;41.03;;;25.67;;
35330;SDS011;21441;52.190;20.910;2024-02-15T13:32:39;39.65;;;27.10;;
35330;SDS011;21441;52.190;20.910;2024-02-15T13:35:08;40.20;;;25.50;;
35330;SDS011;21441;52.190;20.910;2024-02-15T13:37:40;37.13;;;25.63;;
35330;SDS011;21441;52.190;20.910;2024-02-15T13:40:08;41.75;;;25.60;;
35330;SDS011;21441;52.190;20.910;2024-02-15T13:42:41;40.47;;;24.98;;
35330;SDS011;21441;52.190;20.910;2024-02-15T13:45:12;32.28;;;21.73;;
35330;SDS011;21441;52.190;20.910;2024-02-15T13:47:39;34.85;;;25.42;;
35330;SDS011;21441;52.190;20.910;2024-02-15T13:50:08;47.55;;;25.42;;
35330;SDS011;21441;52.190;20.910;2024-02-15T13:52:36;39.22;;;26.85;;
35330;SDS011;21441;52.190;20.910;2024-02-15T13:55:03;37.60;;;22.60;;
35330;SDS011;21441;52.190;20.910;2024-02-15T13:57:30;42.85;;;25.83;;
35330;SDS011;21441;52.190;20.910;2024-02-15T13:59:57;37.30;;;25.80;;
35330;SDS011;21441;52.190;20.910;2024-02-15T14:02:24;39.35;;;26.52;;
35330;SDS011;21441;52.190;20.910;2024-02-15T14:04:50;36.03;;;23.08;;
35330;SDS011;21441;52.190;20.910;2024-02-15T14:07:19;39.88;;;24.05;;
35330;SDS011;21441;52.190;20.910;2024-02-15T14:09:45;39.58;;;23.13;;
35330;SDS011;21441;52.190;20.910;2024-02-15T14:12:13;36.90;;;23.65;;
35330;SDS011;21441;52.190;20.910;2024-02-15T14:14:41;36.03;;;24.25;;
35330;SDS011;21441;52.190;20.910;2024-02-15T14:17:08;39.80;;;23.25;;
35330;SDS011;21441;52.190;20.910;2024-02-15T14:19:35;36.90;;;25.00;;
35330;SDS011;21441;52.190;20.910;2024-02-15T14:22:02;36.72;;;22.73;;
35330;SDS011;21441;52.190;20.910;2024-02-15T14:24:35;35.05;;;22.48;;
35330;SDS011;21441;52.190;20.910;2024-02-15T14:27:04;42.80;;;26.00;;
35330;SDS011;21441;52.190;20.910;2024-02-15T14:29:31;36.55;;;25.05;;
35330;SDS011;21441;52.190;20.910;2024-02-15T14:32:03;38.20;;;24.38;;
35330;SDS011;21441;52.190;20.910;2024-02-15T14:34:48;38.25;;;23.15;;
35330;SDS011;21441;52.190;20.910;2024-02-15T14:37:15;34.75;;;22.45;;
35330;SDS011;21441;52.190;20.910;2024-02-15T14:39:46;31.05;;;22.55;;
35330;SDS011;21441;52.190;20.910;2024-02-15T14:42:12;35.58;;;23.27;;
35330;SDS011;21441;52.190;20.910;2024-02-15T14:44:40;30.85;;;21.48;;
35330;SDS011;21441;52.190;20.910;2024-02-15T14:47:08;33.63;;;21.60;;
35330;SDS011;21441;52.190;20.910;2024-02-15T14:49:36;29.75;;;20.85;;
35330;SDS011;21441;52.190;20.910;2024-02-15T14:52:03;32.10;;;21.33;;
35330;SDS011;21441;52.190;20.910;2024-02-15T14:54:30;33.97;;;21.88;;